Time;durP1;ratioP1;P1;durP2;ratioP2;P2;SDS_P1;SDS_P2;PMS_P1;PMS_P2;Temp;Humidity;BMP_temperature;BMP_pressure;BME280_temperature;BME280_humidity;BME280_pressure;Samples;Min_cycle;Max_cycle;Signal;HPM_P1;HPM_P2
2022/09/12 00:01:06;;;;;;;1.25;0.60;;;18.70;99.90;;;;;;1905328;74;21097;-81
2022/09/12 00:04:00;;;;;;;0.80;0.60;;;18.70;99.90;;;;;;1889151;75;21130;-83
2022/09/12 00:09:38;;;;;;;2.47;0.70;;;18.60;99.90;;;;;;1952834;72;22058;-80
2022/09/12 00:12:29;;;;;;;2.85;0.60;;;18.60;99.90;;;;;;1926995;73;21170;-82
2022/09/12 00:15:21;;;;;;;1.30;0.72;;;18.60;99.90;;;;;;1941188;73;21042;-81
2022/09/12 00:18:15;;;;;;;3.35;0.70;;;18.50;99.90;;;;;;1931196;73;21083;-82
2022/09/12 00:21:07;;;;;;;1.00;0.50;;;18.50;99.90;;;;;;1935859;73;21211;-82
2022/09/12 00:26:40;;;;;;;2.85;0.78;;;18.40;99.90;;;;;;1945823;72;22288;-81
2022/09/12 00:29:31;;;;;;;1.40;0.80;;;18.30;99.90;;;;;;1901705;73;21059;-81
2022/09/12 00:32:22;;;;;;;1.50;0.60;;;18.30;99.90;;;;;;1923170;73;21046;-81
2022/09/12 00:35:19;;;;;;;1.32;0.53;;;18.30;99.90;;;;;;1923466;73;21063;-81
2022/09/12 00:38:10;;;;;;;1.37;0.68;;;18.20;99.90;;;;;;1913855;73;21176;-80
2022/09/12 00:41:02;;;;;;;2.60;0.50;;;18.20;99.90;;;;;;1907571;73;21114;-81
2022/09/12 00:43:55;;;;;;;1.40;0.62;;;18.10;99.90;;;;;;1898656;73;21225;-81
2022/09/12 00:46:49;;;;;;;1.35;0.60;;;18.20;99.90;;;;;;1892595;75;21688;-81
2022/09/12 00:49:43;;;;;;;0.90;0.50;;;18.10;99.90;;;;;;1893575;75;21579;-81
2022/09/12 00:52:37;;;;;;;1.00;0.68;;;18.10;99.90;;;;;;1910546;73;21137;-81
2022/09/12 00:55:32;;;;;;;1.27;0.50;;;18.10;99.90;;;;;;1914647;73;21537;-81
2022/09/12 00:58:27;;;;;;;2.50;0.80;;;18.20;99.90;;;;;;1912292;73;21094;-81
2022/09/12 01:01:18;;;;;;;3.08;0.80;;;18.10;99.90;;;;;;1892515;74;21354;-81
2022/09/12 01:06:55;;;;;;;0.90;0.60;;;18.10;99.90;;;;;;1927795;72;22186;-81
2022/09/12 01:09:47;;;;;;;1.55;0.75;;;18.10;99.90;;;;;;1907837;74;21527;-82
2022/09/12 01:12:41;;;;;;;1.90;0.60;;;18.10;99.90;;;;;;1906658;75;21168;-82
2022/09/12 01:15:32;;;;;;;3.70;0.60;;;18.10;99.90;;;;;;1917813;74;21104;-82
2022/09/12 01:21:13;;;;;;;1.17;0.60;;;18.10;99.90;;;;;;1946653;72;22146;-81
2022/09/12 01:24:20;;;;;;;1.10;0.53;;;18.00;99.90;;;;;;1905581;75;21104;-81
2022/09/12 01:27:21;;;;;;;;;;;18.10;99.90;;;;;;1900483;75;21116;-82
2022/09/12 01:30:24;;;;;;;2.35;0.60;;;18.10;99.90;;;;;;1884616;76;20268;-82
2022/09/12 01:36:19;;;;;;;2.33;0.60;;;18.00;99.90;;;;;;1935084;72;22649;-81
2022/09/12 01:44:47;;;;;;;1.60;0.60;;;17.90;99.90;;;;;;1945113;72;22169;-81
2022/09/12 01:50:21;;;;;;;2.15;0.50;;;17.90;99.90;;;;;;1922867;72;22274;-81
2022/09/12 01:53:17;;;;;;;6.40;1.00;;;17.90;99.90;;;;;;1908293;75;21527;-81
2022/09/12 01:56:13;;;;;;;2.22;0.50;;;17.90;99.90;;;;;;1915717;75;21101;-80
2022/09/12 01:59:07;;;;;;;1.27;0.57;;;17.90;99.90;;;;;;1914270;73;21069;-81
2022/09/12 02:04:47;;;;;;;1.90;0.60;;;17.80;99.90;;;;;;1931116;72;22240;-81
2022/09/12 02:07:41;;;;;;;1.32;0.60;;;17.90;99.90;;;;;;1876914;75;21044;-81
2022/09/12 02:13:17;;;;;;;3.30;0.82;;;17.90;99.90;;;;;;1921503;72;22629;-81
2022/09/12 02:16:11;;;;;;;1.80;0.55;;;17.80;99.90;;;;;;1902768;75;21287;-82
2022/09/12 02:21:44;;;;;;;1.42;0.60;;;17.70;99.90;;;;;;1956835;72;22164;-81
2022/09/12 02:24:39;;;;;;;3.15;0.55;;;17.70;99.90;;;;;;1941077;73;21066;-81
2022/09/12 02:27:33;;;;;;;1.42;0.70;;;17.60;99.90;;;;;;1945725;73;21090;-80
2022/09/12 02:30:24;;;;;;;1.57;0.42;;;17.60;99.90;;;;;;1918378;73;21115;-83
2022/09/12 02:35:58;;;;;;;1.52;0.62;;;17.50;99.90;;;;;;1948394;72;22248;-76
2022/09/12 02:38:50;;;;;;;1.27;0.60;;;17.50;99.90;;;;;;1890794;75;21063;-78
2022/09/12 02:41:41;;;;;;;1.32;0.50;;;17.40;99.90;;;;;;1889242;75;21112;-78
2022/09/12 02:44:35;;;;;;;2.58;0.57;;;17.40;99.90;;;;;;1898278;75;21085;-84
2022/09/12 02:50:10;;;;;;;1.98;0.60;;;17.30;99.90;;;;;;1953025;72;22247;-81
2022/09/12 02:53:03;;;;;;;2.77;0.70;;;17.20;99.90;;;;;;1931710;73;21040;-81
2022/09/12 02:55:56;;;;;;;4.28;0.57;;;17.10;99.90;;;;;;1929427;73;21111;-81
2022/09/12 02:58:48;;;;;;;2.37;0.60;;;17.00;99.90;;;;;;1935742;73;21090;-86
2022/09/12 03:01:55;;;;;;;0.80;0.70;;;17.00;99.90;;;;;;1918998;73;21115;-85
2022/09/12 03:04:59;;;;;;;2.58;0.68;;;17.10;99.90;;;;;;1926195;73;21470;-84
2022/09/12 03:08:17;;;;;;;3.85;0.50;;;17.00;99.90;;;;;;1920873;73;21053;-80
2022/09/12 03:11:43;;;;;;;0.73;0.70;;;17.10;99.90;;;;;;1936346;73;21124;-79
2022/09/12 03:15:00;;;;;;;3.20;0.55;;;17.10;99.90;;;;;;1928213;73;21981;-80
2022/09/12 03:20:45;;;;;;;0.70;0.60;;;17.10;99.90;;;;;;1939828;72;22279;-86
2022/09/12 03:23:39;;;;;;;3.92;1.07;;;17.10;99.90;;;;;;1906749;74;21078;-86
2022/09/12 03:29:19;;;;;;;2.15;0.60;;;17.00;99.90;;;;;;1925909;72;22181;-78
2022/09/12 03:32:10;;;;;;;1.15;0.50;;;17.00;99.90;;;;;;1905961;75;21117;-80
2022/09/12 03:35:01;;;;;;;2.40;0.60;;;16.90;99.90;;;;;;1895609;75;21099;-80
2022/09/12 03:37:53;;;;;;;1.75;0.62;;;16.90;99.90;;;;;;1894637;75;21063;-80
2022/09/12 03:40:45;;;;;;;1.17;0.60;;;16.90;99.90;;;;;;1902588;75;21136;-80
2022/09/12 03:43:38;;;;;;;2.55;1.47;;;16.90;99.90;;;;;;1905647;75;21160;-79
2022/09/12 03:46:29;;;;;;;1.55;0.90;;;16.80;99.90;;;;;;1895945;75;21055;-80
2022/09/12 03:49:20;;;;;;;1.12;0.60;;;16.80;99.90;;;;;;1914968;75;21175;-79
2022/09/12 03:52:12;;;;;;;0.90;0.60;;;16.80;99.90;;;;;;1887634;75;21597;-80
2022/09/12 03:55:03;;;;;;;2.70;0.60;;;16.70;99.90;;;;;;1895607;75;21126;-85
2022/09/12 03:57:55;;;;;;;0.98;0.60;;;16.60;99.90;;;;;;1895144;75;21596;-85
2022/09/12 04:00:46;;;;;;;0.65;0.47;;;16.60;99.90;;;;;;1890255;75;21506;-85
2022/09/12 04:03:39;;;;;;;4.10;0.80;;;16.50;99.90;;;;;;1900750;75;21144;-85
2022/09/12 04:06:31;;;;;;;2.90;0.60;;;16.50;99.90;;;;;;1909758;75;21056;-85
2022/09/12 04:09:23;;;;;;;1.02;0.60;;;16.50;99.90;;;;;;1903649;75;21652;-85
2022/09/12 04:12:14;;;;;;;1.37;0.85;;;16.60;99.90;;;;;;1884609;75;21106;-81
2022/09/12 04:15:07;;;;;;;2.87;0.60;;;16.50;99.90;;;;;;1885640;75;21106;-81
2022/09/12 04:20:43;;;;;;;2.00;0.65;;;16.50;99.90;;;;;;1939378;72;27944;-81
2022/09/12 04:23:34;;;;;;;1.57;0.50;;;16.60;99.90;;;;;;1906422;74;21687;-85
2022/09/12 04:26:28;;;;;;;3.17;0.65;;;16.60;99.90;;;;;;1917181;74;21133;-85
2022/09/12 04:31:57;;;;;;;2.35;0.60;;;16.50;99.90;;;;;;1961191;72;22210;-86
2022/09/12 04:34:48;;;;;;;2.65;0.60;;;16.50;99.90;;;;;;1916830;74;21064;-78
2022/09/12 04:37:39;;;;;;;0.80;0.70;;;16.40;99.90;;;;;;1905139;74;21055;-79
2022/09/12 04:40:32;;;;;;;1.35;0.65;;;16.40;99.90;;;;;;1904997;74;21047;-79
2022/09/12 04:43:23;;;;;;;2.77;0.78;;;16.40;99.90;;;;;;1923743;74;21095;-79
2022/09/12 04:46:18;;;;;;;2.12;0.72;;;16.30;99.90;;;;;;1908747;74;21125;-79
2022/09/12 04:49:10;;;;;;;2.25;0.65;;;16.30;99.90;;;;;;1905007;74;21082;-79
2022/09/12 04:54:41;;;;;;;1.12;0.60;;;16.30;99.90;;;;;;1934780;72;22632;-78
2022/09/12 05:00:13;;;;;;;1.47;0.70;;;16.30;99.90;;;;;;1940670;72;22179;-81
2022/09/12 05:05:49;;;;;;;2.65;0.90;;;16.30;99.90;;;;;;1928088;72;28002;-84
2022/09/12 05:08:44;;;;;;;2.52;0.93;;;16.50;99.90;;;;;;1918433;73;21097;-86
2022/09/12 05:11:38;;;;;;;1.70;0.72;;;16.60;99.90;;;;;;1917435;75;21212;-83
2022/09/12 05:14:32;;;;;;;2.75;0.70;;;16.50;99.90;;;;;;1917254;75;21155;-82
2022/09/12 05:17:23;;;;;;;2.45;0.82;;;16.40;99.90;;;;;;1938882;73;21039;-82
2022/09/12 05:20:16;;;;;;;1.98;0.62;;;16.40;99.90;;;;;;1920548;73;21153;-82
2022/09/12 05:25:51;;;;;;;1.95;0.78;;;16.20;99.90;;;;;;1947190;72;22258;-82
2022/09/12 05:28:43;;;;;;;2.05;0.80;;;16.20;99.90;;;;;;1918122;73;21146;-82
2022/09/12 05:31:36;;;;;;;2.30;0.70;;;16.30;99.90;;;;;;1917458;73;21522;-83
2022/09/12 05:34:28;;;;;;;5.80;0.90;;;16.30;99.90;;;;;;1922743;73;21159;-83
2022/09/12 05:40:03;;;;;;;1.77;0.88;;;16.30;99.90;;;;;;1960531;72;22087;-83
2022/09/12 05:42:52;;;;;;;3.27;0.70;;;16.30;99.90;;;;;;1921268;73;21061;-84
2022/09/12 05:45:44;;;;;;;1.35;0.68;;;16.30;99.90;;;;;;1912279;74;21253;-85
2022/09/12 05:48:36;;;;;;;1.45;0.70;;;16.40;99.90;;;;;;1925828;74;21096;-78
2022/09/12 05:51:28;;;;;;;2.20;0.80;;;16.40;99.90;;;;;;1910455;74;21173;-81
2022/09/12 05:54:21;;;;;;;2.80;0.80;;;16.30;99.90;;;;;;1914747;74;21042;-80
2022/09/12 05:57:13;;;;;;;2.25;0.70;;;16.40;99.90;;;;;;1910973;74;21105;-80
2022/09/12 06:00:08;;;;;;;2.65;0.80;;;16.40;99.90;;;;;;1916849;74;21139;-80
2022/09/12 06:05:40;;;;;;;6.10;1.20;;;16.60;99.90;;;;;;1950193;72;22204;-78
2022/09/12 06:08:32;;;;;;;4.50;0.90;;;16.50;99.90;;;;;;1939156;73;21105;-79
2022/09/12 06:11:27;;;;;;;2.27;0.90;;;16.60;99.90;;;;;;1934775;73;21560;-79
2022/09/12 06:14:19;;;;;;;3.25;0.80;;;16.60;99.90;;;;;;1941487;73;21489;-79
2022/09/12 06:17:10;;;;;;;2.02;0.72;;;16.70;99.90;;;;;;1927093;73;21086;-81
2022/09/12 06:22:42;;;;;;;2.22;0.90;;;16.80;99.90;;;;;;1930006;72;22624;-80
2022/09/12 06:25:33;;;;;;;2.83;0.45;;;16.80;99.90;;;;;;1907824;75;21138;-76
2022/09/12 06:31:07;;;;;;;2.60;0.80;;;17.00;99.90;;;;;;1937745;72;22225;-76
2022/09/12 06:34:01;;;;;;;2.00;1.00;;;17.10;99.90;;;;;;1913691;73;21066;-75
2022/09/12 06:36:52;;;;;;;2.35;0.78;;;17.20;99.90;;;;;;1904787;74;21183;-75
2022/09/12 06:39:43;;;;;;;5.12;1.20;;;17.20;99.90;;;;;;1908115;75;21138;-75
2022/09/12 06:42:35;;;;;;;3.02;1.00;;;17.20;99.90;;;;;;1911894;73;21158;-75
2022/09/12 06:45:27;;;;;;;2.55;1.20;;;17.30;99.90;;;;;;1900795;75;21564;-75
2022/09/12 06:48:19;;;;;;;4.08;1.00;;;17.30;99.90;;;;;;1905435;75;21055;-75
2022/09/12 06:53:59;;;;;;;3.30;1.40;;;17.20;99.90;;;;;;1948406;72;22589;-78
2022/09/12 06:57:07;;;;;;;4.28;1.10;;;17.20;99.90;;;;;;1936031;73;21140;-76
2022/09/12 07:00:03;;;;;;;3.70;1.00;;;17.20;99.90;;;;;;1902521;74;21136;-76
2022/09/12 07:02:56;;;;;;;2.87;1.10;;;17.30;99.90;;;;;;1916914;73;21180;-76
2022/09/12 07:05:48;;;;;;;4.20;1.20;;;17.40;99.90;;;;;;1917371;75;21643;-76
2022/09/12 07:11:19;;;;;;;2.98;1.02;;;17.50;99.90;;;;;;1947155;72;22258;-81
2022/09/12 07:14:12;;;;;;;6.78;1.65;;;17.50;99.90;;;;;;1906323;75;21169;-83
2022/09/12 07:17:04;;;;;;;3.40;0.85;;;17.60;99.90;;;;;;1890900;75;21572;-82
2022/09/12 07:19:56;;;;;;;2.80;0.80;;;17.60;99.90;;;;;;1897899;75;21153;-75
2022/09/12 07:22:47;;;;;;;4.20;0.90;;;17.70;99.90;;;;;;1895067;75;21290;-76
2022/09/12 07:25:39;;;;;;;2.98;0.90;;;17.80;99.90;;;;;;1911268;75;21072;-75
2022/09/12 07:28:34;;;;;;;3.22;0.80;;;17.90;99.90;;;;;;1904102;75;21091;-75
2022/09/12 07:31:27;;;;;;;1.62;0.80;;;18.00;99.90;;;;;;1899633;75;21161;-75
2022/09/12 07:34:21;;;;;;;4.50;1.00;;;18.00;99.90;;;;;;1884263;75;21086;-75
2022/09/12 07:37:13;;;;;;;2.35;0.80;;;18.10;99.90;;;;;;1880781;75;21126;-74
2022/09/12 07:40:06;;;;;;;1.82;0.80;;;18.10;99.90;;;;;;1897833;75;21087;-76
2022/09/12 07:45:40;;;;;;;4.70;0.80;;;18.30;99.90;;;;;;1941485;72;22204;-75
2022/09/12 07:48:31;;;;;;;3.45;0.90;;;18.40;99.90;;;;;;1911459;74;21185;-75
2022/09/12 07:51:26;;;;;;;2.72;0.80;;;18.40;99.90;;;;;;1917511;75;21049;-77
2022/09/12 07:54:17;;;;;;;2.67;2.02;;;18.50;99.90;;;;;;1901498;75;21596;-76
2022/09/12 07:57:09;;;;;;;3.15;1.17;;;18.60;99.90;;;;;;1898547;74;21140;-76
2022/09/12 08:02:39;;;;;;;2.35;0.70;;;18.80;99.90;;;;;;1930019;72;22147;-74
2022/09/12 08:05:30;;;;;;;2.17;0.80;;;18.90;99.90;;;;;;1888883;73;21114;-75
2022/09/12 08:08:21;;;;;;;4.65;0.70;;;19.00;99.90;;;;;;1873974;75;21156;-73
2022/09/12 08:11:15;;;;;;;5.08;0.70;;;19.00;99.90;;;;;;1885719;75;21204;-73
2022/09/12 08:14:06;;;;;;;1.52;1.10;;;19.10;99.90;;;;;;1886154;75;21152;-73
2022/09/12 08:16:57;;;;;;;3.47;0.80;;;19.10;99.90;;;;;;1888630;75;21128;-73
2022/09/12 08:19:49;;;;;;;2.70;0.80;;;19.20;99.90;;;;;;1882732;75;21133;-74
2022/09/12 08:22:41;;;;;;;2.60;0.68;;;19.30;99.90;;;;;;1877553;75;21163;-73
2022/09/12 08:25:33;;;;;;;0.85;0.60;;;19.40;99.90;;;;;;1892339;73;21124;-73
2022/09/12 08:28:25;;;;;;;1.00;0.60;;;19.50;99.90;;;;;;1890655;75;21048;-73
2022/09/12 08:31:18;;;;;;;1.35;0.60;;;19.60;99.90;;;;;;1906302;75;21617;-73
2022/09/12 08:34:10;;;;;;;1.82;0.50;;;19.60;99.90;;;;;;1872353;76;21177;-73
2022/09/12 08:37:02;;;;;;;3.20;1.02;;;19.70;99.90;;;;;;1878706;75;21133;-81
2022/09/12 08:42:38;;;;;;;1.70;1.00;;;19.90;99.90;;;;;;1934253;72;22536;-75
2022/09/12 08:45:34;;;;;;;1.77;0.50;;;20.10;99.90;;;;;;1917679;74;21065;-73
2022/09/12 08:48:28;;;;;;;2.10;0.90;;;20.10;99.90;;;;;;1857087;76;21146;-75
2022/09/12 08:51:22;;;;;;;2.33;0.70;;;20.10;99.90;;;;;;1908122;74;21162;-74
2022/09/12 08:54:17;;;;;;;1.92;1.05;;;20.20;99.90;;;;;;1873028;76;21493;-74
2022/09/12 08:57:11;;;;;;;2.62;1.02;;;20.30;99.90;;;;;;1896186;75;21118;-74
2022/09/12 09:00:05;;;;;;;1.65;0.82;;;20.40;99.90;;;;;;1897814;75;21074;-74
2022/09/12 09:03:11;;;;;;;3.15;0.80;;;20.50;99.90;;;;;;1905396;75;21051;-74
2022/09/12 09:06:20;;;;;;;3.52;0.80;;;20.50;99.90;;;;;;1893892;75;21126;-74
2022/09/12 09:09:16;;;;;;;2.67;1.35;;;20.60;99.90;;;;;;1856525;76;21075;-74
2022/09/12 09:12:13;;;;;;;2.95;0.98;;;20.70;99.90;;;;;;1912020;74;21098;-74
2022/09/12 09:15:25;;;;;;;2.87;1.30;;;20.80;99.90;;;;;;1898751;74;21294;-77
2022/09/12 09:18:21;;;;;;;3.70;1.10;;;20.90;99.90;;;;;;1897121;75;21105;-80
2022/09/12 09:21:18;;;;;;;5.47;3.87;;;21.00;99.90;;;;;;1916595;74;21226;-76
2022/09/12 09:24:13;;;;;;;4.62;1.30;;;21.10;99.90;;;;;;1917518;74;21110;-76
2022/09/12 09:27:08;;;;;;;1.47;0.80;;;21.10;99.90;;;;;;1879251;76;21110;-76
2022/09/12 09:30:04;;;;;;;2.95;1.70;;;21.20;99.90;;;;;;1849556;76;21596;-76
2022/09/12 09:32:59;;;;;;;2.08;1.00;;;21.20;99.90;;;;;;1894342;74;21539;-75
2022/09/12 09:35:58;;;;;;;0.98;0.70;;;21.30;99.90;;;;;;1920027;74;21200;-76
2022/09/12 09:38:52;;;;;;;2.83;1.05;;;21.30;99.90;;;;;;1916759;74;21102;-75
2022/09/12 09:41:50;;;;;;;2.45;1.00;;;21.40;99.90;;;;;;1902773;75;21187;-75
2022/09/12 09:44:49;;;;;;;3.77;0.90;;;21.50;99.90;;;;;;1905155;74;21077;-76
2022/09/12 09:47:41;;;;;;;3.17;0.82;;;21.60;99.90;;;;;;1891989;74;21157;-75
2022/09/12 09:50:40;;;;;;;1.00;0.70;;;21.80;99.90;;;;;;1916500;74;21115;-75
2022/09/12 09:53:37;;;;;;;2.20;1.12;;;21.90;99.90;;;;;;1906393;74;21158;-76
2022/09/12 09:56:33;;;;;;;4.17;1.00;;;22.00;99.90;;;;;;1882361;75;21063;-75
2022/09/12 09:59:29;;;;;;;1.92;0.80;;;22.10;99.90;;;;;;1856920;75;21066;-74
2022/09/12 10:02:23;;;;;;;2.05;0.70;;;22.20;99.90;;;;;;1842809;76;21093;-76
2022/09/12 10:05:20;;;;;;;9.05;0.90;;;22.30;99.90;;;;;;1900318;74;21054;-88
2022/09/12 10:08:16;;;;;;;1.47;0.80;;;22.30;99.90;;;;;;1849838;77;21231;-88
2022/09/12 10:11:11;;;;;;;4.72;1.22;;;22.40;99.90;;;;;;1861674;77;21044;-88
2022/09/12 10:17:30;;;;;;;4.83;3.12;;;22.60;99.90;;;;;;1926137;72;28215;-90
2022/09/12 10:20:36;;;;;;;5.50;1.50;;;22.90;99.90;;;;;;1937587;73;21089;-88
2022/09/12 10:23:33;;;;;;;5.30;2.12;;;22.90;99.90;;;;;;1950132;73;21147;-87
2022/09/12 10:26:26;;;;;;;6.25;1.45;;;23.00;99.90;;;;;;1931735;73;21070;-90
2022/09/12 10:29:20;;;;;;;5.75;1.30;;;23.00;99.90;;;;;;1926991;73;21091;-90
2022/09/12 10:32:12;;;;;;;3.05;1.00;;;23.10;99.90;;;;;;1958543;73;21085;-90
2022/09/12 10:35:07;;;;;;;3.95;1.00;;;23.10;99.90;;;;;;1977071;72;21043;-90
2022/09/12 10:38:02;;;;;;;2.67;0.90;;;23.20;99.90;;;;;;1929029;73;21084;-91
2022/09/12 10:41:02;;;;;;;4.95;0.90;;;23.20;99.90;;;;;;1925828;73;21147;-90
2022/09/12 10:43:56;;;;;;;1.67;0.95;;;23.20;99.90;;;;;;1924793;74;21149;-84
2022/09/12 10:46:47;;;;;;;5.75;1.10;;;23.30;99.90;;;;;;1924329;74;21120;-93
2022/09/12 10:49:39;;;;;;;4.12;0.98;;;23.40;99.90;;;;;;1945097;73;21167;-87
2022/09/12 10:52:30;;;;;;;2.05;0.80;;;23.50;99.90;;;;;;1939783;73;21199;-86
2022/09/12 10:55:27;;;;;;;3.15;0.70;;;23.50;99.90;;;;;;1936209;73;21105;-85
2022/09/12 11:01:09;;;;;;;3.77;1.12;;;23.60;99.90;;;;;;1958295;72;22092;-88
2022/09/12 11:04:18;;;;;;;1.57;0.80;;;23.60;99.90;;;;;;1900511;75;21121;-85
2022/09/12 11:07:38;;;;;;;1.60;0.68;;;23.70;99.90;;;;;;1899366;75;21129;-91
2022/09/12 11:28:51;;;;;;;3.50;0.60;;;24.10;99.90;;;;;;1970746;71;22286;-87
2022/09/12 11:31:54;;;;;;;1.77;0.80;;;24.20;99.90;;;;;;1951394;73;21207;-89
2022/09/12 11:34:52;;;;;;;2.05;0.70;;;24.20;99.90;;;;;;2022255;70;21022;-86
2022/09/12 11:37:46;;;;;;;;;;;24.30;99.90;;;;;;2010301;70;21061;-86
2022/09/12 11:40:46;;;;;;;0.88;0.75;;;24.40;99.90;;;;;;2028439;70;20371;-86
2022/09/12 11:43:43;;;;;;;3.83;0.60;;;24.50;99.90;;;;;;2025337;70;21070;-86
2022/09/12 11:46:40;;;;;;;1.55;0.60;;;24.70;99.90;;;;;;2016541;70;21047;-86
2022/09/12 11:49:36;;;;;;;0.80;0.70;;;24.80;99.90;;;;;;2015407;70;21017;-87
2022/09/12 11:55:24;;;;;;;1.82;0.62;;;24.90;99.90;;;;;;1940371;72;22173;-84
2022/09/12 11:58:20;;;;;;;1.30;0.70;;;25.10;99.90;;;;;;1909307;75;21142;-84
2022/09/12 12:01:17;;;;;;;0.75;0.50;;;25.20;99.90;;;;;;1897859;75;21106;-85
2022/09/12 12:04:12;;;;;;;1.22;0.40;;;25.30;99.90;;;;;;1896811;75;21044;-87
2022/09/12 12:07:08;;;;;;;1.02;0.50;;;25.40;99.90;;;;;;1905560;75;21088;-87
2022/09/12 12:10:03;;;;;;;1.98;0.50;;;25.50;99.90;;;;;;1885705;75;21064;-81
2022/09/12 12:12:57;;;;;;;1.85;0.68;;;25.60;99.90;;;;;;1884923;76;21059;-92
2022/09/12 12:15:51;;;;;;;1.22;0.50;;;25.70;99.90;;;;;;1908059;75;21455;-94
2022/09/12 12:18:45;;;;;;;1.82;0.50;;;25.70;99.90;;;;;;1899884;75;21133;-94
2022/09/12 12:21:41;;;;;;;3.55;0.80;;;25.80;99.90;;;;;;1884808;76;21106;-84
2022/09/12 12:24:34;;;;;;;1.92;0.57;;;26.00;99.90;;;;;;1916649;75;21117;-94
2022/09/12 12:27:28;;;;;;;39.25;35.10;;;26.10;99.90;;;;;;1885046;76;21171;-87
2022/09/12 12:31:04;;;;;;;9.95;6.78;;;26.20;99.90;;;;;;1884611;76;21050;-90
2022/09/12 12:34:22;;;;;;;2.92;0.50;;;26.40;99.90;;;;;;1935872;73;21109;-90
2022/09/12 12:37:52;;;;;;;1.60;0.55;;;26.50;99.90;;;;;;1893242;75;21150;-91
2022/09/12 12:40:43;;;;;;;2.70;0.60;;;26.70;99.90;;;;;;1886952;75;21052;-91
2022/09/12 12:43:42;;;;;;;1.52;0.70;;;26.80;99.90;;;;;;1896285;75;21113;-88
2022/09/12 12:46:36;;;;;;;2.67;1.12;;;26.90;99.90;;;;;;1902729;75;21050;-89
2022/09/12 12:49:29;;;;;;;1.77;0.62;;;26.90;99.90;;;;;;1884913;76;21215;-89
2022/09/12 12:52:21;;;;;;;1.35;0.40;;;27.00;99.90;;;;;;1901473;73;21149;-88
2022/09/12 12:55:16;;;;;;;1.57;0.40;;;27.10;99.90;;;;;;1946614;73;21232;-82
2022/09/12 13:00:53;;;;;;;1.92;0.60;;;27.20;99.90;;;;;;1949954;72;22279;-83
2022/09/12 13:03:52;;;;;;;2.58;0.60;;;27.40;99.90;;;;;;1933512;73;21142;-84
2022/09/12 13:06:46;;;;;;;1.50;0.40;;;27.50;99.90;;;;;;1928689;73;21023;-84
2022/09/12 13:09:51;;;;;;;2.85;0.95;;;27.70;99.90;;;;;;1924549;73;21031;-86
2022/09/12 13:12:47;;;;;;;1.77;0.50;;;27.70;99.90;;;;;;1932951;73;21482;-86
2022/09/12 13:15:53;;;;;;;2.30;0.40;;;27.90;99.90;;;;;;1918257;74;21111;-86
2022/09/12 13:21:28;;;;;;;1.60;0.30;;;28.20;99.70;;;;;;1932487;72;22229;-85
2022/09/12 13:24:24;;;;;;;2.30;0.50;;;28.40;99.50;;;;;;1913034;75;21486;-85
2022/09/12 13:27:25;;;;;;;4.00;0.50;;;28.50;99.00;;;;;;1907226;75;21046;-83
2022/09/12 13:30:19;;;;;;;1.45;0.55;;;28.50;98.60;;;;;;1904631;75;21113;-85
2022/09/12 13:33:20;;;;;;;2.05;0.62;;;28.60;98.50;;;;;;1926514;73;21122;-84
2022/09/12 13:36:43;;;;;;;2.02;0.60;;;28.60;98.30;;;;;;1885698;76;21148;-96
2022/09/12 13:39:41;;;;;;;3.45;0.95;;;28.60;98.00;;;;;;1885685;76;21079;-96
2022/09/12 13:42:41;;;;;;;2.98;0.70;;;28.60;98.40;;;;;;1885815;76;21199;-96
2022/09/12 13:45:37;;;;;;;2.15;0.40;;;28.60;98.30;;;;;;1885676;76;21543;-90
2022/09/12 13:48:29;;;;;;;3.35;0.80;;;28.70;98.00;;;;;;1911045;75;21161;-85
2022/09/12 13:51:24;;;;;;;2.72;0.62;;;28.80;97.60;;;;;;1916901;75;21043;-86
2022/09/12 13:54:20;;;;;;;1.15;0.40;;;29.00;97.40;;;;;;1903252;75;21566;-85
2022/09/12 13:57:29;;;;;;;3.10;0.80;;;29.20;96.70;;;;;;1912953;75;21087;-86
2022/09/12 14:00:21;;;;;;;0.90;0.30;;;29.40;96.70;;;;;;1884688;76;21051;-84
2022/09/12 14:06:47;;;;;;;1.67;0.47;;;29.70;95.50;;;;;;1915765;75;21111;-85
2022/09/12 14:09:40;;;;;;;1.12;0.65;;;30.10;94.90;;;;;;1917518;75;21046;-83
2022/09/12 14:12:34;;;;;;;1.10;0.30;;;31.10;93.20;;;;;;1904388;75;21172;-83
2022/09/12 14:15:29;;;;;;;1.65;0.37;;;32.40;92.00;;;;;;1904603;75;21625;-85
2022/09/12 14:18:27;;;;;;;1.47;0.45;;;32.70;90.60;;;;;;1906385;75;21549;-87
2022/09/12 14:21:27;;;;;;;0.30;0.30;;;33.30;88.70;;;;;;1909098;75;21527;-88
2022/09/12 14:24:22;;;;;;;1.00;0.40;;;33.50;86.40;;;;;;1896569;75;21140;-89
2022/09/12 14:27:22;;;;;;;2.12;0.42;;;33.70;83.40;;;;;;1917580;75;21142;-88
2022/09/12 14:30:23;;;;;;;0.45;0.33;;;34.00;81.40;;;;;;1905583;75;21238;-87
2022/09/12 14:36:18;;;;;;;3.37;0.45;;;34.70;78.70;;;;;;1940172;73;22151;-83
2022/09/12 14:39:20;;;;;;;2.27;0.40;;;34.60;77.50;;;;;;1892493;74;21124;-83
2022/09/12 14:42:15;;;;;;;3.02;0.30;;;34.60;77.80;;;;;;1910128;75;21462;-81
2022/09/12 14:45:16;;;;;;;2.27;0.50;;;34.70;76.20;;;;;;1896285;75;21055;-81
2022/09/12 14:48:19;;;;;;;0.90;0.47;;;34.70;75.80;;;;;;1889333;75;21141;-81
2022/09/12 14:51:21;;;;;;;1.37;0.40;;;35.10;75.50;;;;;;1894590;75;21094;-82
2022/09/12 14:54:41;;;;;;;1.98;0.47;;;35.20;73.90;;;;;;1867485;76;21046;-82
2022/09/12 14:57:38;;;;;;;1.05;0.40;;;35.30;73.10;;;;;;1901456;75;21138;-82
2022/09/12 15:00:30;;;;;;;2.40;0.50;;;35.60;71.60;;;;;;1891246;75;21055;-82
2022/09/12 15:03:31;;;;;;;1.98;0.50;;;35.30;71.90;;;;;;1892329;75;21638;-82
2022/09/12 15:06:31;;;;;;;1.52;0.50;;;35.20;71.70;;;;;;1901946;75;21038;-82
2022/09/12 15:09:23;;;;;;;0.82;0.40;;;35.40;71.20;;;;;;1906543;74;21091;-81
2022/09/12 15:12:15;;;;;;;3.02;0.60;;;35.30;71.10;;;;;;1884690;75;21154;-80
2022/09/12 15:15:20;;;;;;;1.10;0.50;;;35.50;70.60;;;;;;1898371;75;21171;-80
2022/09/12 15:18:12;;;;;;;2.62;0.70;;;35.90;70.30;;;;;;1904873;75;21039;-80
2022/09/12 15:21:06;;;;;;;1.70;0.50;;;36.30;69.10;;;;;;1869652;76;21112;-80
2022/09/12 15:23:57;;;;;;;1.87;0.60;;;36.80;68.50;;;;;;1907054;75;21146;-81
2022/09/12 15:26:49;;;;;;;2.17;0.50;;;36.70;66.80;;;;;;1903929;75;21095;-81
2022/09/12 15:29:40;;;;;;;0.62;0.40;;;36.60;66.40;;;;;;1899185;75;21555;-81
2022/09/12 15:32:33;;;;;;;2.65;0.65;;;36.60;66.40;;;;;;1886931;75;21101;-81
2022/09/12 15:35:28;;;;;;;0.85;0.50;;;37.20;65.90;;;;;;1892448;75;21147;-84
2022/09/12 15:38:25;;;;;;;3.90;0.75;;;37.50;64.10;;;;;;1883836;75;21097;-81
2022/09/12 15:41:20;;;;;;;3.83;1.40;;;37.20;64.80;;;;;;1884357;75;21263;-89
2022/09/12 15:44:15;;;;;;;1.57;0.65;;;37.40;64.70;;;;;;1882652;73;21116;-91
2022/09/12 15:49:46;;;;;;;2.52;0.60;;;37.60;62.90;;;;;;1952608;72;22213;-90
2022/09/12 15:52:38;;;;;;;1.98;0.40;;;37.80;62.40;;;;;;1884893;76;21159;-91
2022/09/12 15:55:32;;;;;;;1.62;0.40;;;38.10;62.30;;;;;;1890454;73;21164;-79
2022/09/12 15:58:24;;;;;;;1.75;0.50;;;37.40;61.50;;;;;;1895061;75;21570;-79
2022/09/12 16:01:18;;;;;;;2.10;0.60;;;36.90;62.60;;;;;;1893131;75;21129;-79
2022/09/12 16:04:21;;;;;;;1.80;0.57;;;37.70;62.20;;;;;;1883825;76;21118;-78
2022/09/12 16:07:19;;;;;;;3.00;0.60;;;38.30;60.80;;;;;;1899904;75;21138;-81
2022/09/12 16:10:15;;;;;;;2.42;0.50;;;38.50;60.80;;;;;;1897395;75;21543;-80
2022/09/12 16:13:11;;;;;;;3.83;0.60;;;38.50;60.20;;;;;;1908590;75;21123;-81
2022/09/12 16:16:03;;;;;;;2.10;0.45;;;38.20;59.70;;;;;;1903381;75;21183;-80
2022/09/12 16:18:54;;;;;;;1.35;0.40;;;37.50;60.40;;;;;;1905590;75;21114;-80
2022/09/12 16:21:46;;;;;;;1.85;0.72;;;37.20;60.90;;;;;;1900484;75;21088;-81
2022/09/12 16:24:39;;;;;;;1.02;0.53;;;37.60;59.90;;;;;;1891473;75;21066;-78
2022/09/12 16:27:30;;;;;;;0.60;0.30;;;37.50;59.80;;;;;;1889280;75;21099;-79
2022/09/12 16:30:22;;;;;;;2.33;0.40;;;37.30;60.30;;;;;;1906359;75;21098;-77
2022/09/12 16:33:15;;;;;;;1.85;0.60;;;37.20;60.30;;;;;;1898627;75;21133;-77
2022/09/12 16:36:09;;;;;;;2.72;2.05;;;37.10;61.20;;;;;;1931653;73;21147;-92
2022/09/12 16:39:01;;;;;;;1.32;0.70;;;37.00;61.60;;;;;;1905164;75;21125;-86
2022/09/12 16:41:52;;;;;;;0.95;0.40;;;36.20;62.00;;;;;;1896393;75;21576;-84
2022/09/12 16:44:43;;;;;;;1.07;0.60;;;34.80;64.00;;;;;;1901520;73;21308;-83
2022/09/12 16:47:35;;;;;;;1.90;0.70;;;34.00;65.90;;;;;;1892101;75;21083;-84
2022/09/12 16:50:28;;;;;;;3.33;0.70;;;33.60;67.00;;;;;;1896366;74;21114;-84
2022/09/12 16:56:04;;;;;;;4.12;0.60;;;33.10;68.30;;;;;;1934994;72;22588;-82
2022/09/12 17:01:38;;;;;;;0.93;0.50;;;32.20;69.10;;;;;;1946611;72;22229;-83
2022/09/12 17:04:30;;;;;;;1.15;0.37;;;31.40;70.30;;;;;;1897775;75;21621;-83
2022/09/12 17:10:00;;;;;;;0.90;0.50;;;30.40;72.80;;;;;;1941894;72;22138;-81
2022/09/12 17:12:52;;;;;;;1.52;0.65;;;30.00;73.90;;;;;;1878641;75;21062;-82
2022/09/12 17:15:45;;;;;;;1.85;0.60;;;29.80;75.00;;;;;;1883987;75;21173;-84
2022/09/12 17:18:37;;;;;;;3.15;0.47;;;29.70;75.30;;;;;;1898986;75;21140;-83
2022/09/12 17:21:29;;;;;;;1.20;0.50;;;29.30;76.70;;;;;;1888920;75;21058;-82
2022/09/12 17:24:22;;;;;;;9.98;6.35;;;28.90;77.10;;;;;;1895720;75;21098;-91